Time;durP1;ratioP1;P1;durP2;ratioP2;P2;SDS_P1;SDS_P2;PMS_P1;PMS_P2;Temp;Humidity;BMP_temperature;BMP_pressure;BME280_temperature;BME280_humidity;BME280_pressure;Samples;Min_cycle;Max_cycle;Signal;HPM_P1;HPM_P2
2023/08/24 00:01:52;;;;;;;8.35;5.30;;;27.60;61.20;;;;;;6152011;28;80304;-61
2023/08/24 00:04:52;;;;;;;6.00;4.88;;;27.40;60.60;;;;;;6150744;28;80454;-61
2023/08/24 00:07:53;;;;;;;7.07;4.60;;;27.40;60.90;;;;;;6151875;28;81476;-61
2023/08/24 00:10:54;;;;;;;8.85;5.53;;;27.40;61.60;;;;;;6151624;28;80643;-60
2023/08/24 00:13:54;;;;;;;9.82;5.25;;;27.50;61.30;;;;;;6143862;28;82333;-62
2023/08/24 00:16:55;;;;;;;7.35;5.00;;;27.40;60.60;;;;;;6134778;28;80478;-62
2023/08/24 00:19:56;;;;;;;8.38;5.03;;;27.30;60.40;;;;;;6127792;28;81474;-63
2023/08/24 00:22:56;;;;;;;7.20;5.18;;;27.30;60.60;;;;;;6127677;28;81031;-64
2023/08/24 00:25:56;;;;;;;10.18;5.10;;;27.30;60.80;;;;;;6128075;28;80413;-63
2023/08/24 00:28:57;;;;;;;7.43;4.75;;;27.30;60.70;;;;;;6142244;28;86949;-61
2023/08/24 00:31:57;;;;;;;9.68;5.03;;;27.30;60.90;;;;;;6149297;28;81885;-64
2023/08/24 00:34:58;;;;;;;8.60;5.13;;;27.30;60.60;;;;;;6151032;28;80434;-62
2023/08/24 00:37:59;;;;;;;6.22;4.75;;;27.30;60.60;;;;;;6152614;28;81071;-63
2023/08/24 00:41:00;;;;;;;7.90;4.75;;;27.30;60.70;;;;;;6151474;28;80417;-62
2023/08/24 00:44:01;;;;;;;10.27;5.32;;;27.30;60.90;;;;;;6152292;28;80353;-63
2023/08/24 00:47:02;;;;;;;9.57;5.68;;;27.20;60.60;;;;;;6150739;28;80869;-61
2023/08/24 00:50:03;;;;;;;8.35;5.00;;;27.20;60.60;;;;;;6152305;28;81678;-62
2023/08/24 00:53:04;;;;;;;8.85;5.18;;;27.20;60.70;;;;;;6151593;28;81000;-62
2023/08/24 00:56:04;;;;;;;7.50;5.05;;;27.20;60.80;;;;;;6149538;28;81010;-61
2023/08/24 00:59:05;;;;;;;6.90;4.63;;;27.20;61.30;;;;;;6150797;28;82195;-62
2023/08/24 01:02:06;;;;;;;9.07;4.78;;;27.30;61.20;;;;;;6150296;28;80425;-62
2023/08/24 01:05:06;;;;;;;9.05;4.90;;;27.30;60.60;;;;;;6152043;28;80948;-64
2023/08/24 01:08:07;;;;;;;7.85;5.18;;;27.20;60.90;;;;;;6149411;28;80576;-64
2023/08/24 01:11:07;;;;;;;6.55;4.47;;;27.20;60.70;;;;;;6148193;28;82259;-64
2023/08/24 01:14:08;;;;;;;8.40;4.95;;;27.20;60.80;;;;;;6163068;28;81895;-59
2023/08/24 01:17:09;;;;;;;6.97;4.72;;;27.20;60.60;;;;;;6154488;28;80487;-58
2023/08/24 01:20:10;;;;;;;6.50;4.47;;;27.20;60.50;;;;;;6151526;28;80866;-58
2023/08/24 01:23:10;;;;;;;6.57;4.80;;;27.20;60.40;;;;;;6151592;28;80519;-58
2023/08/24 01:26:13;;;;;;;8.98;4.50;;;27.20;60.50;;;;;;6150893;28;83285;-59
2023/08/24 01:29:15;;;;;;;6.07;4.93;;;27.20;60.50;;;;;;6150465;28;80338;-59
2023/08/24 01:32:15;;;;;;;10.13;4.68;;;27.20;60.40;;;;;;6146872;28;84210;-61
2023/08/24 01:35:17;;;;;;;7.82;4.95;;;27.10;60.00;;;;;;6153162;28;80966;-61
2023/08/24 01:38:17;;;;;;;7.70;5.18;;;27.00;59.80;;;;;;6152641;28;81233;-61
2023/08/24 01:41:18;;;;;;;7.25;4.65;;;26.90;59.90;;;;;;6149553;28;80463;-61
2023/08/24 01:44:19;;;;;;;6.35;4.32;;;26.90;60.10;;;;;;6154714;28;81410;-61
2023/08/24 01:47:20;;;;;;;9.48;4.75;;;26.90;60.30;;;;;;6155476;28;81747;-61
2023/08/24 01:50:21;;;;;;;12.32;4.20;;;27.00;60.50;;;;;;6121239;28;83709;-61
2023/08/24 01:53:22;;;;;;;7.00;4.50;;;27.00;60.20;;;;;;6141929;28;82186;-60
2023/08/24 01:56:22;;;;;;;7.57;4.65;;;27.00;60.00;;;;;;6128705;28;80556;-60
2023/08/24 01:59:23;;;;;;;9.00;5.00;;;27.00;59.70;;;;;;6127085;28;80456;-60
2023/08/24 02:02:23;;;;;;;7.80;4.97;;;26.90;59.60;;;;;;6112412;28;82647;-58
2023/08/24 02:05:27;;;;;;;9.27;4.60;;;26.90;59.80;;;;;;6126631;28;81345;-61
2023/08/24 02:08:27;;;;;;;9.57;5.13;;;26.90;60.00;;;;;;6128818;28;80747;-58
2023/08/24 02:11:28;;;;;;;6.78;4.80;;;26.90;59.90;;;;;;6125195;28;80525;-58
2023/08/24 02:14:29;;;;;;;7.93;4.78;;;26.90;59.60;;;;;;6141949;28;80550;-59
2023/08/24 02:17:30;;;;;;;7.07;4.60;;;26.90;59.40;;;;;;6129052;28;80678;-56
2023/08/24 02:20:31;;;;;;;5.78;4.65;;;26.80;59.50;;;;;;6128709;28;86563;-59
2023/08/24 02:23:31;;;;;;;9.25;5.10;;;26.70;59.70;;;;;;6127815;28;80543;-58
2023/08/24 02:26:33;;;;;;;9.52;4.85;;;26.80;59.70;;;;;;6129409;28;80050;-59
2023/08/24 02:29:33;;;;;;;7.03;5.18;;;26.80;59.20;;;;;;6127256;28;82301;-62
2023/08/24 02:32:34;;;;;;;11.00;4.93;;;26.70;58.90;;;;;;6127634;28;82089;-62
2023/08/24 02:35:35;;;;;;;11.18;5.65;;;26.70;58.90;;;;;;6127199;28;81015;-62
2023/08/24 02:38:35;;;;;;;6.20;4.55;;;26.60;59.00;;;;;;6129254;28;83429;-62
2023/08/24 02:41:36;;;;;;;8.63;4.72;;;26.50;59.00;;;;;;6129612;28;80448;-60
2023/08/24 02:44:36;;;;;;;9.95;4.53;;;26.50;59.00;;;;;;6129588;28;80477;-61
2023/08/24 02:47:37;;;;;;;8.57;4.78;;;26.40;59.00;;;;;;6126747;28;81305;-60
2023/08/24 02:50:38;;;;;;;7.25;4.50;;;26.40;59.20;;;;;;6144034;28;81640;-61
2023/08/24 02:53:40;;;;;;;7.30;4.60;;;26.40;59.40;;;;;;6127458;28;81820;-60
2023/08/24 02:56:40;;;;;;;10.80;4.78;;;26.50;59.30;;;;;;6128540;28;81574;-61
2023/08/24 02:59:43;;;;;;;5.45;4.05;;;26.50;59.20;;;;;;6126480;28;82139;-60
2023/08/24 03:02:44;;;;;;;8.15;4.82;;;26.50;59.30;;;;;;6125947;28;82421;-60
2023/08/24 03:05:44;;;;;;;8.25;4.50;;;26.60;59.70;;;;;;6133110;28;81823;-60
2023/08/24 03:08:45;;;;;;;10.20;4.60;;;26.60;60.00;;;;;;6129077;28;80896;-60
2023/08/24 03:11:46;;;;;;;7.10;5.05;;;26.70;59.30;;;;;;6135842;28;82379;-59
2023/08/24 03:14:47;;;;;;;9.32;5.05;;;26.60;58.70;;;;;;6151226;28;80350;-59
2023/08/24 03:17:47;;;;;;;9.23;5.30;;;26.60;58.80;;;;;;6128644;28;81118;-60
2023/08/24 03:20:48;;;;;;;5.47;4.60;;;26.50;59.20;;;;;;6150044;28;82176;-59
2023/08/24 03:23:49;;;;;;;9.45;4.70;;;26.60;59.10;;;;;;6164674;28;84006;-62
2023/08/24 03:26:50;;;;;;;11.18;4.75;;;26.60;59.00;;;;;;6153783;28;80758;-63
2023/08/24 03:29:51;;;;;;;11.20;5.38;;;26.60;58.80;;;;;;6151410;28;81582;-62
2023/08/24 03:32:51;;;;;;;8.65;5.13;;;26.60;58.50;;;;;;6146084;28;80376;-63
2023/08/24 03:35:52;;;;;;;10.00;5.63;;;26.50;58.50;;;;;;6150555;28;80411;-65
2023/08/24 03:38:53;;;;;;;12.77;5.20;;;26.50;58.60;;;;;;6141874;28;83028;-65
2023/08/24 03:41:54;;;;;;;9.35;5.07;;;26.50;58.80;;;;;;6128563;28;80552;-64
2023/08/24 03:44:54;;;;;;;9.15;5.35;;;26.50;58.80;;;;;;6128597;28;81623;-63
2023/08/24 03:47:55;;;;;;;12.70;6.47;;;26.50;59.10;;;;;;6123943;28;83434;-66
2023/08/24 03:50:55;;;;;;;8.15;5.65;;;26.40;59.40;;;;;;6125664;28;83056;-64
2023/08/24 03:53:56;;;;;;;12.50;5.75;;;26.50;59.50;;;;;;6128414;28;80870;-66
2023/08/24 03:56:56;;;;;;;16.80;6.13;;;26.50;59.60;;;;;;6126442;28;82943;-63
2023/08/24 03:59:57;;;;;;;11.70;6.85;;;26.60;59.80;;;;;;6127059;28;82200;-60
2023/08/24 04:02:58;;;;;;;11.15;6.10;;;26.50;59.60;;;;;;6125632;28;83402;-58
2023/08/24 04:06:00;;;;;;;9.50;6.15;;;26.60;59.80;;;;;;6126376;28;83385;-59
2023/08/24 04:09:04;;;;;;;9.10;5.93;;;26.60;59.80;;;;;;6125115;28;85818;-59
2023/08/24 04:12:04;;;;;;;8.57;6.22;;;26.50;59.80;;;;;;6126116;28;81640;-59
2023/08/24 04:15:05;;;;;;;9.88;6.25;;;26.50;59.70;;;;;;6124923;28;82006;-60
2023/08/24 04:18:05;;;;;;;9.55;6.47;;;26.50;59.90;;;;;;6127535;28;82928;-64
2023/08/24 04:21:06;;;;;;;6.85;5.80;;;26.50;59.90;;;;;;6126275;28;83685;-67
2023/08/24 04:24:06;;;;;;;8.63;5.15;;;26.50;60.30;;;;;;6129377;28;80457;-64
2023/08/24 04:27:07;;;;;;;10.15;5.93;;;26.60;60.60;;;;;;6118946;28;85854;-69
2023/08/24 04:30:11;;;;;;;10.15;6.40;;;26.70;60.80;;;;;;6112106;28;81308;-65
2023/08/24 04:33:12;;;;;;;15.23;6.72;;;26.70;60.60;;;;;;6112436;28;81393;-66
2023/08/24 04:36:12;;;;;;;14.40;6.63;;;26.70;60.80;;;;;;6110582;28;81963;-60
2023/08/24 04:39:13;;;;;;;9.70;6.20;;;26.70;61.00;;;;;;6098808;28;82145;-58
2023/08/24 04:42:14;;;;;;;11.75;6.88;;;26.70;61.10;;;;;;6107550;28;80590;-58
2023/08/24 04:45:14;;;;;;;10.60;7.45;;;26.70;61.20;;;;;;6110899;28;80886;-59
2023/08/24 04:48:15;;;;;;;12.90;7.85;;;26.80;61.30;;;;;;6119919;28;82477;-60
2023/08/24 04:51:15;;;;;;;12.77;7.50;;;26.80;61.90;;;;;;6125927;28;81248;-58
2023/08/24 04:54:16;;;;;;;12.65;8.80;;;26.80;61.30;;;;;;6126796;28;80502;-60
2023/08/24 04:57:16;;;;;;;11.77;8.65;;;26.80;61.40;;;;;;6128817;28;85361;-68
2023/08/24 05:00:17;;;;;;;9.57;7.03;;;26.80;61.40;;;;;;6128786;28;80801;-66
2023/08/24 05:03:19;;;;;;;13.95;8.35;;;26.90;61.60;;;;;;6123006;28;81304;-70
2023/08/24 05:06:19;;;;;;;10.50;6.82;;;26.90;61.60;;;;;;6120093;28;81470;-64
2023/08/24 05:09:20;;;;;;;11.88;8.20;;;26.90;61.90;;;;;;6117024;28;81264;-64
2023/08/24 05:12:20;;;;;;;13.93;9.00;;;26.90;62.00;;;;;;6124957;28;80736;-67
2023/08/24 05:15:21;;;;;;;9.75;7.53;;;27.00;62.20;;;;;;6130398;28;80814;-59
2023/08/24 05:18:21;;;;;;;13.50;8.25;;;27.00;62.00;;;;;;6127794;28;80584;-59
2023/08/24 05:21:22;;;;;;;15.50;9.38;;;27.00;62.00;;;;;;6127350;28;86481;-59
2023/08/24 05:24:22;;;;;;;24.38;9.93;;;26.90;62.20;;;;;;6127681;28;81163;-59
2023/08/24 05:27:23;;;;;;;19.25;8.82;;;26.90;62.30;;;;;;6128935;28;82025;-58
2023/08/24 05:30:24;;;;;;;14.73;9.40;;;26.90;62.20;;;;;;6128456;28;80980;-59
2023/08/24 05:33:25;;;;;;;13.25;8.93;;;26.90;62.10;;;;;;6127348;28;81374;-58
2023/08/24 05:36:25;;;;;;;13.48;8.18;;;26.90;62.20;;;;;;6127083;28;82588;-59
2023/08/24 05:39:26;;;;;;;10.95;8.38;;;26.90;62.30;;;;;;6128731;28;81001;-57
2023/08/24 05:42:26;;;;;;;15.82;9.98;;;26.90;62.20;;;;;;6126927;28;81005;-59
2023/08/24 05:45:27;;;;;;;12.38;8.57;;;26.90;62.20;;;;;;6123729;28;83401;-58
2023/08/24 05:48:29;;;;;;;14.57;9.43;;;26.90;62.20;;;;;;6128508;28;82963;-59
2023/08/24 05:51:29;;;;;;;15.82;10.00;;;26.90;62.30;;;;;;6128343;28;81253;-70
2023/08/24 05:54:30;;;;;;;17.30;9.15;;;26.90;62.60;;;;;;6125684;28;83300;-66
2023/08/24 05:57:30;;;;;;;21.27;9.95;;;26.90;62.60;;;;;;6125689;28;83674;-63
2023/08/24 06:00:31;;;;;;;16.38;10.23;;;27.00;62.80;;;;;;6125721;28;81746;-70
2023/08/24 06:03:31;;;;;;;16.38;9.90;;;27.00;62.30;;;;;;6126312;28;82924;-72
2023/08/24 06:06:32;;;;;;;15.85;9.50;;;27.00;62.50;;;;;;6128108;28;83894;-67
2023/08/24 06:09:33;;;;;;;19.88;11.13;;;27.00;62.30;;;;;;6124532;28;80569;-58
2023/08/24 06:12:33;;;;;;;18.73;11.05;;;26.90;61.70;;;;;;6124710;28;85906;-60
2023/08/24 06:15:34;;;;;;;16.27;10.85;;;26.80;62.30;;;;;;6125053;28;83908;-61
2023/08/24 06:18:34;;;;;;;16.58;11.13;;;26.90;62.60;;;;;;6119270;28;84704;-59
2023/08/24 06:21:35;;;;;;;11.98;9.50;;;26.90;63.00;;;;;;6122919;28;82974;-58
2023/08/24 06:24:35;;;;;;;15.15;10.35;;;26.90;63.40;;;;;;6127988;28;81807;-59
2023/08/24 06:27:36;;;;;;;15.02;12.27;;;26.70;63.70;;;;;;6124562;28;83137;-59
2023/08/24 06:30:38;;;;;;;19.85;12.20;;;26.70;64.20;;;;;;6125636;28;83396;-58
2023/08/24 06:33:39;;;;;;;18.77;11.02;;;26.60;64.40;;;;;;6123056;28;84829;-57
2023/08/24 06:36:39;;;;;;;20.58;11.35;;;26.80;64.40;;;;;;6119943;28;83213;-57
2023/08/24 06:39:40;;;;;;;16.60;9.93;;;26.90;64.40;;;;;;6119620;28;83963;-56
2023/08/24 06:42:40;;;;;;;17.88;8.98;;;27.00;64.20;;;;;;6127234;28;83450;-59
2023/08/24 06:45:41;;;;;;;10.88;8.75;;;27.10;64.00;;;;;;6127626;28;80357;-58
2023/08/24 06:48:43;;;;;;;21.88;10.65;;;27.10;63.80;;;;;;6127665;28;80720;-59
2023/08/24 06:51:43;;;;;;;16.00;9.05;;;27.10;63.60;;;;;;6122681;28;84062;-58
2023/08/24 06:54:44;;;;;;;13.50;8.23;;;27.20;63.60;;;;;;6126932;28;83426;-59
2023/08/24 06:57:44;;;;;;;26.40;9.77;;;27.20;63.50;;;;;;6121023;28;81092;-58
2023/08/24 07:00:45;;;;;;;15.95;10.20;;;27.20;63.60;;;;;;6127605;28;80452;-59
2023/08/24 07:03:46;;;;;;;14.77;9.80;;;27.10;63.60;;;;;;6116225;28;83349;-59
2023/08/24 07:06:47;;;;;;;13.10;10.07;;;27.00;63.70;;;;;;6128447;28;83374;-60
2023/08/24 07:09:48;;;;;;;11.85;9.82;;;27.00;63.70;;;;;;6124764;28;82885;-58
2023/08/24 07:12:48;;;;;;;19.52;9.82;;;27.00;63.20;;;;;;6126469;28;83108;-58
2023/08/24 07:15:49;;;;;;;13.90;8.88;;;27.00;63.30;;;;;;6128139;28;81723;-60
2023/08/24 07:18:50;;;;;;;20.95;9.75;;;27.10;63.10;;;;;;6128260;28;83169;-57
2023/08/24 07:21:50;;;;;;;17.75;8.73;;;27.10;62.90;;;;;;6127834;28;81159;-58
2023/08/24 07:24:52;;;;;;;16.45;10.80;;;27.10;63.00;;;;;;6126973;28;80424;-56
2023/08/24 07:27:57;;;;;;;17.15;9.70;;;27.00;62.80;;;;;;6124619;28;83072;-58
2023/08/24 07:30:58;;;;;;;18.63;8.48;;;26.80;63.00;;;;;;6126635;28;81894;-57
2023/08/24 07:33:58;;;;;;;15.93;9.80;;;27.00;62.80;;;;;;6125455;28;82576;-58
2023/08/24 07:36:59;;;;;;;14.52;9.38;;;27.10;62.30;;;;;;6125975;28;80800;-58
2023/08/24 07:39:59;;;;;;;16.67;8.63;;;27.10;61.80;;;;;;6128240;28;81236;-58
2023/08/24 07:43:00;;;;;;;18.48;9.40;;;27.10;61.40;;;;;;6128480;28;81053;-58
2023/08/24 07:46:01;;;;;;;15.32;8.57;;;27.10;61.10;;;;;;6119389;28;80122;-58
2023/08/24 07:49:01;;;;;;;18.17;8.82;;;27.10;60.90;;;;;;6120252;28;82637;-59
2023/08/24 07:52:02;;;;;;;18.33;8.60;;;27.00;61.00;;;;;;6129378;28;80328;-60
2023/08/24 07:55:03;;;;;;;13.88;8.57;;;27.00;60.40;;;;;;6129639;28;87791;-57
2023/08/24 07:58:04;;;;;;;16.42;8.63;;;27.10;60.40;;;;;;6127122;28;83215;-62
2023/08/24 08:01:04;;;;;;;11.13;7.60;;;27.00;60.10;;;;;;6125226;28;80824;-61
2023/08/24 08:04:05;;;;;;;12.73;7.68;;;27.10;60.70;;;;;;6124451;28;81671;-65
2023/08/24 08:07:07;;;;;;;17.88;7.18;;;27.30;60.40;;;;;;6127639;28;81260;-61
2023/08/24 08:10:07;;;;;;;14.60;7.53;;;27.40;60.40;;;;;;6129723;28;80717;-60
2023/08/24 08:13:08;;;;;;;11.13;7.90;;;27.40;60.10;;;;;;6127857;28;80569;-61
2023/08/24 08:16:08;;;;;;;15.45;8.25;;;27.40;59.80;;;;;;6125727;28;82755;-62
2023/08/24 08:19:09;;;;;;;12.75;8.07;;;27.30;60.00;;;;;;6129647;28;80869;-61
2023/08/24 08:22:09;;;;;;;15.88;8.20;;;27.40;60.20;;;;;;6124993;28;82029;-61
2023/08/24 08:25:12;;;;;;;11.10;7.70;;;27.40;59.40;;;;;;6133526;28;81867;-62
2023/08/24 08:28:12;;;;;;;10.98;8.20;;;27.40;59.60;;;;;;6132204;28;80493;-59
2023/08/24 08:31:13;;;;;;;11.88;7.60;;;27.40;59.30;;;;;;6129216;28;80396;-63
2023/08/24 08:34:13;;;;;;;12.52;6.82;;;27.40;59.00;;;;;;6128632;28;80877;-59
2023/08/24 08:37:14;;;;;;;16.73;7.53;;;27.50;59.50;;;;;;6131924;28;80521;-63
2023/08/24 08:40:14;;;;;;;12.93;8.20;;;27.60;59.20;;;;;;6130605;28;80564;-62
2023/08/24 08:43:15;;;;;;;12.15;8.48;;;27.60;58.90;;;;;;6132310;28;81169;-60
2023/08/24 08:46:16;;;;;;;11.85;7.13;;;27.50;59.00;;;;;;6126248;28;80987;-62
2023/08/24 08:49:16;;;;;;;9.48;6.80;;;27.60;58.90;;;;;;6132439;28;80384;-62
2023/08/24 08:52:17;;;;;;;12.85;6.70;;;27.60;58.90;;;;;;6133544;28;81354;-64
2023/08/24 08:55:18;;;;;;;12.98;7.28;;;27.60;59.20;;;;;;6131944;28;80441;-52
2023/08/24 08:58:18;;;;;;;10.82;6.75;;;27.70;59.00;;;;;;6132443;28;80493;-59
2023/08/24 09:01:19;;;;;;;10.75;6.95;;;27.70;59.60;;;;;;6128600;28;80464;-58
2023/08/24 09:04:19;;;;;;;9.95;6.25;;;27.80;58.90;;;;;;6132504;28;80236;-58
2023/08/24 09:07:20;;;;;;;12.02;6.10;;;27.90;58.40;;;;;;6125904;28;82257;-60
2023/08/24 09:10:21;;;;;;;11.13;6.55;;;27.90;58.30;;;;;;6129374;28;80765;-59
2023/08/24 09:13:21;;;;;;;8.00;5.68;;;27.90;57.70;;;;;;6131492;28;84460;-59
2023/08/24 09:16:22;;;;;;;9.40;6.50;;;27.90;57.40;;;;;;6122820;28;81660;-58
2023/08/24 09:19:22;;;;;;;8.55;6.13;;;27.90;57.40;;;;;;6132562;28;80325;-58
2023/08/24 09:22:23;;;;;;;13.43;6.55;;;27.90;57.80;;;;;;6130668;28;80492;-54
2023/08/24 09:25:23;;;;;;;11.27;5.85;;;28.00;58.00;;;;;;6132247;28;80654;-58
2023/08/24 09:28:24;;;;;;;7.57;5.63;;;28.10;58.20;;;;;;6132681;28;80740;-54
2023/08/24 09:31:25;;;;;;;9.73;5.85;;;28.20;58.40;;;;;;6129491;28;82105;-60
2023/08/24 09:34:30;;;;;;;12.00;6.50;;;28.20;58.30;;;;;;6131326;28;81628;-60
2023/08/24 09:37:32;;;;;;;7.55;5.28;;;28.20;57.50;;;;;;6132060;28;80701;-63
2023/08/24 09:40:32;;;;;;;8.40;5.85;;;28.30;57.50;;;;;;6129867;28;80982;-66
2023/08/24 09:43:33;;;;;;;9.45;5.13;;;28.30;57.00;;;;;;6127576;28;80317;-66
2023/08/24 09:46:33;;;;;;;11.88;4.93;;;28.30;57.00;;;;;;6131937;28;80502;-64
2023/08/24 09:49:34;;;;;;;11.38;5.82;;;28.30;57.30;;;;;;6126045;28;80630;-65
2023/08/24 09:52:34;;;;;;;11.50;5.97;;;28.30;57.30;;;;;;6130264;28;80721;-65
2023/08/24 09:55:35;;;;;;;6.43;5.28;;;28.30;57.10;;;;;;6130763;28;80532;-63
2023/08/24 09:58:35;;;;;;;7.93;4.70;;;28.40;56.00;;;;;;6126029;28;81852;-64
2023/08/24 10:01:36;;;;;;;13.07;6.05;;;28.30;55.30;;;;;;6129554;28;81367;-63
2023/08/24 10:04:36;;;;;;;8.20;5.45;;;28.40;55.80;;;;;;6129741;28;81502;-65
2023/08/24 10:07:38;;;;;;;8.57;5.03;;;28.40;56.00;;;;;;6130778;28;80906;-66
2023/08/24 10:10:38;;;;;;;7.50;4.68;;;28.50;55.80;;;;;;6129715;28;80830;-59
2023/08/24 10:13:39;;;;;;;7.95;4.45;;;28.50;55.40;;;;;;6115701;28;80373;-60
2023/08/24 10:16:39;;;;;;;6.22;4.13;;;28.50;54.70;;;;;;6129793;28;83298;-59
2023/08/24 10:19:40;;;;;;;9.57;5.05;;;28.60;54.20;;;;;;6129106;28;80592;-61
2023/08/24 10:22:40;;;;;;;7.68;4.47;;;28.60;53.60;;;;;;6132965;28;80758;-62
2023/08/24 10:25:42;;;;;;;7.43;4.70;;;28.60;53.10;;;;;;6131303;28;80252;-61
2023/08/24 10:28:42;;;;;;;11.13;3.78;;;28.60;51.70;;;;;;6130084;28;83144;-62
2023/08/24 10:31:43;;;;;;;8.25;4.32;;;28.60;51.20;;;;;;6131036;28;80456;-65
2023/08/24 10:34:43;;;;;;;6.93;4.10;;;28.60;51.00;;;;;;6127738;28;81158;-59
2023/08/24 10:37:44;;;;;;;14.93;4.32;;;28.70;50.40;;;;;;6128080;28;80720;-58
2023/08/24 10:40:45;;;;;;;5.20;3.50;;;28.70;50.00;;;;;;6129809;28;80183;-58
2023/08/24 10:43:45;;;;;;;5.15;3.78;;;28.70;49.30;;;;;;6129542;28;81659;-63
2023/08/24 10:46:46;;;;;;;5.28;3.58;;;28.70;49.40;;;;;;6128658;28;83052;-67
2023/08/24 10:49:46;;;;;;;11.40;3.97;;;28.70;49.90;;;;;;6128404;28;80642;-63
2023/08/24 10:52:47;;;;;;;4.85;3.40;;;28.80;48.50;;;;;;6130503;28;80382;-64
2023/08/24 10:55:47;;;;;;;6.07;3.60;;;28.70;47.80;;;;;;6128634;28;80708;-64
2023/08/24 10:58:48;;;;;;;5.65;3.80;;;28.80;47.60;;;;;;6129053;28;80853;-63
2023/08/24 11:01:48;;;;;;;5.15;3.08;;;28.80;48.10;;;;;;6128922;28;80523;-63
2023/08/24 11:04:49;;;;;;;4.97;3.60;;;28.80;48.20;;;;;;6128907;28;81537;-60
2023/08/24 11:07:50;;;;;;;8.40;3.78;;;28.80;49.30;;;;;;6129361;28;80610;-62
2023/08/24 11:10:50;;;;;;;6.35;3.63;;;28.80;48.60;;;;;;6129612;28;80697;-58
2023/08/24 11:13:51;;;;;;;5.47;3.72;;;28.80;48.20;;;;;;6128878;28;80280;-63
2023/08/24 11:16:51;;;;;;;6.00;2.95;;;28.80;47.90;;;;;;6129045;28;81748;-61
2023/08/24 11:19:52;;;;;;;9.45;3.70;;;28.90;47.20;;;;;;6128772;28;81292;-65
2023/08/24 11:22:53;;;;;;;8.30;3.40;;;28.90;47.50;;;;;;6130297;28;80399;-59
2023/08/24 11:25:57;;;;;;;9.60;3.92;;;28.90;46.70;;;;;;6126543;28;85799;-53
2023/08/24 11:28:57;;;;;;;5.22;3.55;;;28.90;47.20;;;;;;6128495;28;80442;-57
2023/08/24 11:31:58;;;;;;;4.15;3.40;;;28.90;47.00;;;;;;6128538;28;81882;-60
2023/08/24 11:34:59;;;;;;;5.57;3.53;;;28.90;46.50;;;;;;6124926;28;80374;-58
2023/08/24 11:37:59;;;;;;;6.47;3.75;;;28.90;47.10;;;;;;6124778;28;80891;-59
2023/08/24 11:41:00;;;;;;;5.32;3.33;;;28.90;47.40;;;;;;6125817;28;80239;-64
2023/08/24 11:44:00;;;;;;;4.57;3.08;;;28.90;47.10;;;;;;6128549;28;80797;-63
2023/08/24 11:47:01;;;;;;;4.75;3.40;;;28.90;46.80;;;;;;6125719;28;80891;-64
2023/08/24 11:50:01;;;;;;;6.88;3.25;;;28.90;46.40;;;;;;6125778;28;80474;-65
2023/08/24 11:53:02;;;;;;;4.93;3.50;;;29.00;47.10;;;;;;6125124;28;80501;-64
2023/08/24 11:56:05;;;;;;;5.35;4.28;;;29.00;47.40;;;;;;6127495;28;82101;-63
2023/08/24 11:59:05;;;;;;;5.80;3.45;;;29.00;48.10;;;;;;6126529;28;81237;-58
2023/08/24 12:02:06;;;;;;;5.95;3.95;;;29.00;48.50;;;;;;6127672;28;81548;-55
2023/08/24 12:05:06;;;;;;;8.05;4.25;;;29.00;48.90;;;;;;6127121;28;80524;-56
2023/08/24 12:08:07;;;;;;;6.47;4.10;;;29.10;48.80;;;;;;6127145;28;80395;-57
2023/08/24 12:11:10;;;;;;;8.05;4.03;;;29.10;50.10;;;;;;6123228;28;80564;-57
2023/08/24 12:14:11;;;;;;;5.50;3.90;;;29.00;49.50;;;;;;6126695;28;81066;-58
2023/08/24 12:17:12;;;;;;;5.72;3.78;;;29.10;49.20;;;;;;6125583;28;80236;-57
2023/08/24 12:20:12;;;;;;;6.53;3.83;;;29.10;48.90;;;;;;6127625;28;82494;-56
2023/08/24 12:23:13;;;;;;;5.15;4.10;;;29.10;49.20;;;;;;6126925;28;81371;-58
2023/08/24 12:26:13;;;;;;;9.23;4.22;;;29.00;49.90;;;;;;6127645;28;80613;-57
2023/08/24 12:29:14;;;;;;;4.75;3.72;;;29.00;50.00;;;;;;6125902;28;80724;-59
2023/08/24 12:32:16;;;;;;;7.90;4.38;;;29.00;50.10;;;;;;6125395;28;80979;-55
2023/08/24 12:35:16;;;;;;;5.30;3.85;;;29.00;50.40;;;;;;6128130;28;80474;-66
2023/08/24 12:38:17;;;;;;;11.95;4.20;;;28.90;50.30;;;;;;6124255;28;80487;-64
2023/08/24 12:41:17;;;;;;;10.63;3.75;;;28.90;50.80;;;;;;6123692;28;80623;-66
2023/08/24 12:44:18;;;;;;;5.40;3.85;;;28.90;50.30;;;;;;6123891;28;80452;-68
2023/08/24 12:47:18;;;;;;;5.93;3.53;;;28.90;50.30;;;;;;6124708;28;83388;-68
2023/08/24 12:50:19;;;;;;;7.28;4.15;;;28.90;49.80;;;;;;6128085;28;83464;-65
2023/08/24 12:53:19;;;;;;;7.20;3.65;;;29.00;48.00;;;;;;6126401;28;80364;-64
2023/08/24 12:56:20;;;;;;;11.63;4.25;;;29.00;48.80;;;;;;6126540;28;80306;-64
2023/08/24 12:59:20;;;;;;;7.70;3.78;;;29.10;50.10;;;;;;6127609;28;80464;-63
2023/08/24 13:02:21;;;;;;;4.60;3.65;;;29.00;49.10;;;;;;6126477;28;81666;-64
2023/08/24 13:05:22;;;;;;;5.85;3.67;;;29.00;49.30;;;;;;6126973;28;80151;-62
2023/08/24 13:08:22;;;;;;;11.23;4.22;;;29.10;48.30;;;;;;6128510;28;80050;-65
2023/08/24 13:11:23;;;;;;;7.85;3.70;;;29.10;47.60;;;;;;6130481;28;83469;-63
2023/08/24 13:14:23;;;;;;;5.40;3.78;;;29.10;47.60;;;;;;6130384;28;80635;-68
2023/08/24 13:17:24;;;;;;;8.20;3.58;;;29.20;47.40;;;;;;6131236;28;80610;-61
2023/08/24 13:20:25;;;;;;;6.85;4.10;;;29.20;47.80;;;;;;6130699;28;80050;-70
2023/08/24 13:23:26;;;;;;;6.78;3.47;;;29.30;48.00;;;;;;6131565;28;80534;-65
2023/08/24 13:26:26;;;;;;;6.85;3.88;;;29.20;47.90;;;;;;6129045;28;82971;-62
2023/08/24 13:29:27;;;;;;;7.93;3.63;;;29.30;47.80;;;;;;6132564;28;80511;-62
2023/08/24 13:32:27;;;;;;;8.02;3.47;;;29.20;47.90;;;;;;6130511;28;80957;-60
2023/08/24 13:35:28;;;;;;;6.55;3.83;;;29.30;48.00;;;;;;6129855;28;80074;-59
2023/08/24 13:38:28;;;;;;;6.32;4.03;;;29.20;48.30;;;;;;6129815;28;81114;-59
2023/08/24 13:41:29;;;;;;;12.90;4.18;;;29.20;48.50;;;;;;6128369;28;81754;-58
2023/08/24 13:44:29;;;;;;;5.60;3.40;;;29.20;48.70;;;;;;6131138;28;80129;-58
2023/08/24 13:47:30;;;;;;;7.05;3.60;;;29.20;47.20;;;;;;6128974;28;80864;-58
2023/08/24 13:50:30;;;;;;;4.65;3.50;;;29.20;47.70;;;;;;6129907;28;82190;-58
2023/08/24 13:53:31;;;;;;;6.35;3.78;;;29.20;48.00;;;;;;6130874;28;81555;-58
2023/08/24 13:56:31;;;;;;;6.32;3.80;;;29.20;48.20;;;;;;6129343;28;81215;-58
2023/08/24 13:59:32;;;;;;;8.75;3.65;;;29.20;47.80;;;;;;6095301;28;83587;-58
2023/08/24 14:02:32;;;;;;;7.72;3.60;;;29.20;46.60;;;;;;6115734;28;82754;-59
2023/08/24 14:05:33;;;;;;;9.20;4.03;;;29.20;46.70;;;;;;6119304;28;82094;-59
2023/08/24 14:08:33;;;;;;;5.60;3.50;;;29.20;46.70;;;;;;6123694;28;80505;-59
2023/08/24 14:11:34;;;;;;;6.15;3.25;;;29.20;46.90;;;;;;6118371;28;80311;-57
2023/08/24 14:14:35;;;;;;;8.35;3.75;;;29.20;47.10;;;;;;6127019;28;80989;-60
2023/08/24 14:17:35;;;;;;;5.32;3.22;;;29.20;47.00;;;;;;6124699;28;81360;-55
2023/08/24 14:20:36;;;;;;;6.68;3.88;;;29.00;46.90;;;;;;6127443;28;83773;-61
2023/08/24 14:23:36;;;;;;;7.50;4.15;;;29.10;47.40;;;;;;6124084;28;81517;-60
2023/08/24 14:26:39;;;;;;;8.88;3.90;;;29.10;47.50;;;;;;6126706;28;80284;-58
2023/08/24 14:29:39;;;;;;;11.48;3.85;;;29.00;47.70;;;;;;6128677;28;85908;-59
2023/08/24 14:32:40;;;;;;;6.80;3.67;;;29.00;47.60;;;;;;6130587;28;80746;-60
2023/08/24 14:35:40;;;;;;;7.50;3.65;;;28.90;47.70;;;;;;6114558;28;88489;-59
2023/08/24 14:38:41;;;;;;;5.53;3.35;;;28.90;47.70;;;;;;6131628;28;86527;-60
2023/08/24 14:41:41;;;;;;;9.43;3.83;;;28.80;47.90;;;;;;6097687;28;81214;-60
2023/08/24 14:44:42;;;;;;;4.78;3.15;;;28.70;47.70;;;;;;6113326;28;83148;-66
2023/08/24 14:47:42;;;;;;;9.70;3.97;;;28.80;47.80;;;;;;6144567;28;84701;-64
2023/08/24 14:50:43;;;;;;;8.52;3.58;;;28.90;47.70;;;;;;6119413;28;81069;-69
2023/08/24 14:53:43;;;;;;;9.50;3.72;;;28.90;48.00;;;;;;6109500;28;86065;-67
2023/08/24 14:56:44;;;;;;;8.65;3.78;;;28.90;47.90;;;;;;6094813;28;81083;-67
2023/08/24 14:59:44;;;;;;;7.88;3.50;;;28.90;48.10;;;;;;6106420;28;82059;-69
2023/08/24 15:02:45;;;;;;;9.48;3.70;;;28.80;48.20;;;;;;6139539;28;81134;-63
2023/08/24 15:05:45;;;;;;;8.27;3.70;;;28.70;48.10;;;;;;6137637;28;80903;-67
2023/08/24 15:08:46;;;;;;;5.50;3.80;;;28.70;48.90;;;;;;6147763;28;82069;-66
2023/08/24 15:11:46;;;;;;;8.52;3.80;;;28.60;49.20;;;;;;6148168;28;81387;-74
2023/08/24 15:14:47;;;;;;;5.85;3.90;;;28.60;49.10;;;;;;6145790;28;80466;-66
2023/08/24 15:17:47;;;;;;;7.05;3.63;;;28.60;49.20;;;;;;6146942;28;80439;-68
2023/08/24 15:20:48;;;;;;;7.05;4.07;;;28.60;49.40;;;;;;6151156;28;80479;-61
2023/08/24 15:23:48;;;;;;;7.18;4.05;;;28.60;49.60;;;;;;6145854;28;81547;-63
2023/08/24 15:26:49;;;;;;;7.63;3.83;;;28.60;49.50;;;;;;6150148;28;81276;-68
2023/08/24 15:29:51;;;;;;;9.82;3.58;;;28.60;49.50;;;;;;6147131;28;81973;-67
2023/08/24 15:32:51;;;;;;;12.00;4.10;;;28.70;49.80;;;;;;6145606;28;80292;-66
2023/08/24 15:35:52;;;;;;;5.28;3.53;;;28.70;49.90;;;;;;6148107;28;80639;-69